地図

経路データ

SID SEASON NUMBER BASIN SUBBASIN NAME ISO_TIME NATURE LAT LON WMO_WIND WMO_PRES WMO_AGENCY TRACK_TYPE DIST2LAND LANDFALL IFLAG USA_AGENCY USA_ATCF_ID USA_LAT USA_LON USA_RECORD USA_STATUS USA_WIND USA_PRES USA_SSHS USA_R34_NE USA_R34_SE USA_R34_SW USA_R34_NW USA_R50_NE USA_R50_SE USA_R50_SW USA_R50_NW USA_R64_NE USA_R64_SE USA_R64_SW USA_R64_NW USA_POCI USA_ROCI USA_RMW USA_EYE TOKYO_LAT TOKYO_LON TOKYO_GRADE TOKYO_WIND TOKYO_PRES TOKYO_R50_DIR TOKYO_R50_LONG TOKYO_R50_SHORT TOKYO_R30_DIR TOKYO_R30_LONG TOKYO_R30_SHORT TOKYO_LAND CMA_LAT CMA_LON CMA_CAT CMA_WIND CMA_PRES HKO_LAT HKO_LON HKO_CAT HKO_WIND HKO_PRES NEWDELHI_LAT NEWDELHI_LON NEWDELHI_GRADE NEWDELHI_WIND NEWDELHI_PRES NEWDELHI_CI NEWDELHI_DP NEWDELHI_POCI REUNION_LAT REUNION_LON REUNION_TYPE REUNION_WIND REUNION_PRES REUNION_TNUM REUNION_CI REUNION_RMW REUNION_R34_NE REUNION_R34_SE REUNION_R34_SW REUNION_R34_NW REUNION_R50_NE REUNION_R50_SE REUNION_R50_SW REUNION_R50_NW REUNION_R64_NE REUNION_R64_SE REUNION_R64_SW REUNION_R64_NW BOM_LAT BOM_LON BOM_TYPE BOM_WIND BOM_PRES BOM_TNUM BOM_CI BOM_RMW BOM_R34_NE BOM_R34_SE BOM_R34_SW BOM_R34_NW BOM_R50_NE BOM_R50_SE BOM_R50_SW BOM_R50_NW BOM_R64_NE BOM_R64_SE BOM_R64_SW BOM_R64_NW BOM_ROCI BOM_POCI BOM_EYE BOM_POS_METHOD BOM_PRES_METHOD NADI_LAT NADI_LON NADI_CAT NADI_WIND NADI_PRES WELLINGTON_LAT WELLINGTON_LON WELLINGTON_WIND WELLINGTON_PRES DS824_LAT DS824_LON DS824_STAGE DS824_WIND DS824_PRES TD9636_LAT TD9636_LON TD9636_STAGE TD9636_WIND TD9636_PRES TD9635_LAT TD9635_LON TD9635_WIND TD9635_PRES TD9635_ROCI NEUMANN_LAT NEUMANN_LON NEUMANN_CLASS NEUMANN_WIND NEUMANN_PRES MLC_LAT MLC_LON MLC_CLASS MLC_WIND MLC_PRES USA_GUST BOM_GUST BOM_GUST_PER REUNION_GUST REUNION_GUST_PER USA_SEAHGT USA_SEARAD_NE USA_SEARAD_SE USA_SEARAD_SW USA_SEARAD_NW STORM_SPEED STORM_DIR
1967248N13253 1967 89 EP MM LILY 1967-09-05 00:00:00 TS 12.9000 -107.100 45 hurdat_epa main 716 716 O________OO___ hurdat_epa EP111967 12.9000 -107.100 TS 45 0 12.9000 -107.100 TC 45 12.9000 -107.100 2 8 271
1967248N13253 1967 89 EP MM LILY 1967-09-05 03:00:00 TS 12.9073 -107.503 main 740 740 P________PP___ EP111967 12.9101 -107.500 TS 45 0 12.9101 -107.500 TC 45 12.8961 -107.514 2 8 270
1967248N13253 1967 89 EP MM LILY 1967-09-05 06:00:00 TS 12.8967 -107.904 45 hurdat_epa main 766 766 O________OP___ hurdat_epa EP111967 12.9000 -107.900 TS 45 0 12.9000 -107.900 TC 45 12.8835 -107.922 2 8 266
1967248N13253 1967 89 EP MM LILY 1967-09-05 09:00:00 TS 12.8568 -108.304 main 793 793 P________PP___ EP111967 12.8574 -108.300 TS 45 0 12.8574 -108.300 TC 45 12.8541 -108.319 2 8 263
1967248N13253 1967 89 EP MM LILY 1967-09-05 12:00:00 TS 12.8000 -108.700 45 hurdat_epa main 828 828 O________OO___ hurdat_epa EP111967 12.8000 -108.700 TS 45 0 12.8000 -108.700 TC 45 12.8000 -108.700 2 8 262
1967248N13253 1967 89 EP MM LILY 1967-09-05 15:00:00 TS 12.7439 -109.087 main 860 860 P________PP___ EP111967 12.7499 -109.092 TS 45 0 12.7499 -109.092 TC 45 12.7198 -109.066 2 8 262
1967248N13253 1967 89 EP MM LILY 1967-09-05 18:00:00 TS 12.6877 -109.489 45 hurdat_epa main 884 884 O________OP___ hurdat_epa EP111967 12.7000 -109.500 TS 45 0 12.7000 -109.500 TC 45 12.6386 -109.446 2 8 261
1967248N13253 1967 89 EP MM LILY 1967-09-05 21:00:00 TS 12.6194 -109.894 main 918 918 P________PP___ EP111967 12.6272 -109.898 TS 45 0 12.6272 -109.898 TC 45 12.5882 -109.878 2 9 264
1967248N13253 1967 89 EP MM LILY 1967-09-06 00:00:00 TS 12.6000 -110.400 45 hurdat_epa main 950 950 O________OO___ hurdat_epa EP111967 12.6000 -110.400 TS 45 0 12.6000 -110.400 TC 45 12.6000 -110.400 2 12 272
1967248N13253 1967 89 EP MM LILY 1967-09-06 03:00:00 TS 12.6599 -111.101 main 991 991 P________PP___ EP111967 12.6551 -111.105 TS 45 0 12.6551 -111.105 TC 45 12.6788 -111.085 2 15 278
1967248N13253 1967 89 EP MM LILY 1967-09-06 06:00:00 TS 12.8048 -111.891 45 hurdat_epa main 1043 1043 O________OP___ hurdat_epa EP111967 12.8000 -111.900 TS 45 0 12.8000 -111.900 TC 45 12.8239 -111.855 2 16 283
1967248N13253 1967 89 EP MM LILY 1967-09-06 09:00:00 TS 13.0164 -112.668 main 1088 1088 P________PP___ EP111967 13.0125 -112.673 TS 45 0 13.0125 -112.673 TC 45 13.0319 -112.648 2 16 289
1967248N13253 1967 89 EP MM LILY 1967-09-06 12:00:00 TS 13.3000 -113.400 45 hurdat_epa main 1121 1118 O________OO___ hurdat_epa EP111967 13.3000 -113.400 TS 45 0 13.3000 -113.400 TC 45 13.3000 -113.400 3 15 295
1967248N13253 1967 89 EP MM LILY 1967-09-06 15:00:00 TS 13.6210 -114.028 main 1122 1107 P________PP___ EP111967 13.6272 -114.030 TS 60 0 13.6272 -114.030 TC 60 13.5961 -114.022 3 14 301
1967248N13253 1967 89 EP MM LILY 1967-09-06 18:00:00 TS 13.9902 -114.599 75 hurdat_epa main 1107 1091 O________OP___ hurdat_epa EP111967 14.0000 -114.600 HU 75 1 14.0000 -114.600 TC 75 13.9511 -114.596 3 13 305
1967248N13253 1967 89 EP MM LILY 1967-09-06 21:00:00 TS 14.3729 -115.150 main 1091 1084 P________PP___ EP111967 14.3773 -115.150 HU 75 1 14.3773 -115.150 TC 75 14.3556 -115.147 3 13 307
1967248N13253 1967 89 EP MM LILY 1967-09-07 00:00:00 TS 14.8000 -115.700 75 hurdat_epa main 1086 1076 O________OO___ hurdat_epa EP111967 14.8000 -115.700 HU 75 1 14.8000 -115.700 TC 75 14.8000 -115.700 4 14 309
1967248N13253 1967 89 EP MM LILY 1967-09-07 03:00:00 TS 15.2824 -116.297 main 1077 1068 P________PP___ EP111967 15.2849 -116.293 HU 75 1 15.2849 -116.293 TC 75 15.2722 -116.313 4 15 311
1967248N13253 1967 89 EP MM LILY 1967-09-07 06:00:00 TS 15.7955 -116.906 75 hurdat_epa main 1074 1071 O________OP___ hurdat_epa EP111967 15.8000 -116.900 HU 75 1 15.8000 -116.900 TC 75 15.7776 -116.930 4 16 311
1967248N13253 1967 89 EP MM LILY 1967-09-07 09:00:00 TS 16.3048 -117.518 main 1077 1077 P________PP___ EP111967 16.3074 -117.515 HU 75 1 16.3074 -117.515 TC 75 16.2941 -117.532 4 15 311
1967248N13253 1967 89 EP MM LILY 1967-09-07 12:00:00 TS 16.8000 -118.100 75 hurdat_epa main 1081 1069 O________OO___ hurdat_epa EP111967 16.8000 -118.100 HU 75 1 16.8000 -118.100 TC 75 16.8000 -118.100 4 14 312
1967248N13253 1967 89 EP MM LILY 1967-09-07 15:00:00 TS 17.2643 -118.626 main 1067 1063 P________PP___ EP111967 17.2573 -118.623 HU 75 1 17.2573 -118.623 TC 75 17.2923 -118.640 4 13 313
1967248N13253 1967 89 EP MM LILY 1967-09-07 18:00:00 TS 17.7134 -119.108 75 hurdat_epa main 1066 1062 O________OP___ hurdat_epa EP111967 17.7000 -119.100 HU 75 1 17.7000 -119.100 TC 75 17.7670 -119.140 4 13 315
1967248N13253 1967 89 EP MM LILY 1967-09-07 21:00:00 TS 18.1856 -119.583 main 1062 1054 P________PP___ EP111967 18.1800 -119.580 HU 75 1 18.1800 -119.580 TC 75 18.2082 -119.596 4 12 316
1967248N13253 1967 89 EP MM LILY 1967-09-08 00:00:00 TS 18.6000 -120.000 75 hurdat_epa main 1062 1062 O________OO___ hurdat_epa EP111967 18.6000 -120.000 HU 75 1 18.6000 -120.000 TC 75 18.6000 -120.000 4 10 314
1967248N13253 1967 89 EP MM LILY 1967-09-08 03:00:00 TS 18.8763 -120.330 main 1064 1064 P________PP___ EP111967 18.8723 -120.323 HU 75 1 18.8723 -120.323 TC 75 18.8922 -120.356 4 8 311
1967248N13253 1967 89 EP MM LILY 1967-09-08 06:00:00 TS 19.1083 -120.612 75 hurdat_epa main 1074 1074 O________OP___ hurdat_epa EP111967 19.1000 -120.600 HU 75 1 19.1000 -120.600 TC 75 19.1417 -120.662 4 7 312
1967248N13253 1967 89 EP MM LILY 1967-09-08 09:00:00 TS 19.3751 -120.908 main 1079 1079 P________PP___ EP111967 19.3700 -120.900 HU 75 1 19.3700 -120.900 TC 75 19.3955 -120.937 4 8 317
1967248N13253 1967 89 EP MM LILY 1967-09-08 12:00:00 TS 19.7000 -121.200 75 hurdat_epa main 1086 1072 O________OO___ hurdat_epa EP111967 19.7000 -121.200 HU 75 1 19.7000 -121.200 TC 75 19.7000 -121.200 4 9 323
1967248N13253 1967 89 EP MM LILY 1967-09-08 15:00:00 TS 20.1187 -121.508 main 1072 1050 P________PP___ EP111967 20.1200 -121.508 HU 70 1 20.1200 -121.508 TC 70 20.1135 -121.510 4 11 328
1967248N13253 1967 89 EP MM LILY 1967-09-08 18:00:00 TS 20.5965 -121.802 65 hurdat_epa main 1050 1029 O________OP___ hurdat_epa EP111967 20.6000 -121.800 HU 65 1 20.6000 -121.800 TC 65 20.5827 -121.809 4 11 331
1967248N13253 1967 89 EP MM LILY 1967-09-08 21:00:00 TS 21.0911 -122.074 main 1029 1003 P________PP___ EP111967 21.0925 -122.073 HU 65 1 21.0925 -122.073 TC 65 21.0855 -122.079 4 11 335
1967248N13253 1967 89 EP MM LILY 1967-09-09 00:00:00 TS 21.6000 -122.300 65 hurdat_epa main 1003 980 O________OO___ hurdat_epa EP111967 21.6000 -122.300 HU 65 1 21.6000 -122.300 TC 65 21.6000 -122.300 4 11 339
1967248N13253 1967 89 EP MM LILY 1967-09-09 03:00:00 TS 22.0961 -122.479 main 980 953 P________PP___ EP111967 22.1000 -122.480 HU 65 1 22.1000 -122.480 TC 65 22.0804 -122.475 4 10 344
1967248N13253 1967 89 EP MM LILY 1967-09-09 06:00:00 TS 22.5939 -122.600 65 hurdat_epa main 953 927 O________OP___ hurdat_epa EP111967 22.6000 -122.600 HU 65 1 22.6000 -122.600 TC 65 22.5697 -122.598 4 10 350
1967248N13253 1967 89 EP MM LILY 1967-09-09 09:00:00 TS 23.0828 -122.666 main 927 896 P________PP___ EP111967 23.0850 -122.665 HU 65 1 23.0850 -122.665 TC 65 23.0742 -122.672 4 10 355
1967248N13253 1967 89 EP MM LILY 1967-09-09 12:00:00 TS 23.6000 -122.700 65 hurdat_epa main 896 871 O________OO___ hurdat_epa EP111967 23.6000 -122.700 HU 65 1 23.6000 -122.700 TC 65 23.6000 -122.700 4 11 355
1967248N13253 1967 89 EP MM LILY 1967-09-09 15:00:00 TS 24.1894 -122.776 main 871 841 P________PP___ EP111967 24.1925 -122.780 HU 65 1 24.1925 -122.780 TC 65 24.1772 -122.761 4 12 356
1967248N13253 1967 89 EP MM LILY 1967-09-09 18:00:00 TS 24.7943 -122.794 65 hurdat_epa main 841 810 O________OP___ hurdat_epa EP111967 24.8000 -122.800 HU 65 1 24.8000 -122.800 TC 65 24.7714 -122.770 4 12 3
1967248N13253 1967 89 EP MM LILY 1967-09-09 21:00:00 TS 25.3688 -122.719 main 806 770 P________PP___ EP111967 25.3723 -122.725 HU 55 0 25.3723 -122.725 TC 55 25.3550 -122.695 4 11 13
1967248N13253 1967 89 EP MM LILY 1967-09-10 00:00:00 TS 25.9000 -122.500 45 hurdat_epa main 770 719 O________OO___ hurdat_epa EP111967 25.9000 -122.500 TS 45 0 25.9000 -122.500 TC 45 25.9000 -122.500 2 11 29
1967248N13253 1967 89 EP MM LILY 1967-09-10 03:00:00 TS 26.3736 -122.108 main 717 659 P________PP___ EP111967 26.3726 -122.103 TS 45 0 26.3726 -122.103 TC 45 26.3774 -122.129 2 12 42
1967248N13253 1967 89 EP MM LILY 1967-09-10 06:00:00 TS 26.8023 -121.608 45 hurdat_epa main 659 598 O________OP___ hurdat_epa EP111967 26.8000 -121.600 TS 45 0 26.8000 -121.600 TC 45 26.8117 -121.642 2 12 47
1967248N13253 1967 89 EP MM LILY 1967-09-10 09:00:00 TS 27.2151 -121.090 main 598 533 P________PP___ EP111967 27.2151 -121.085 TS 45 0 27.2151 -121.085 TC 45 27.2150 -121.109 2 12 48
1967248N13253 1967 89 EP MM LILY 1967-09-10 12:00:00 TS 27.6000 -120.600 45 hurdat_epa main 533 482 O________OO___ hurdat_epa EP111967 27.6000 -120.600 TS 45 0 27.6000 -120.600 TC 45 27.6000 -120.600 2 11 46
1967248N13253 1967 89 EP MM LILY 1967-09-10 15:00:00 TS 27.9625 -120.203 main 477 436 P________PP___ EP111967 27.9497 -120.227 TS 45 0 27.9497 -120.227 TC 45 28.0137 -120.105 2 10 42
1967248N13253 1967 89 EP MM LILY 1967-09-10 18:00:00 TS 28.3220 -119.852 45 hurdat_epa main 436 382 O________OP___ hurdat_epa EP111967 28.3000 -119.900 TS 45 0 28.3000 -119.900 TC 45 28.4098 -119.662 2 10 41
1967248N13253 1967 89 EP MM LILY 1967-09-10 21:00:00 TS 28.7213 -119.448 main 373 340 P________PP___ EP111967 28.7077 -119.476 TS 45 0 28.7077 -119.476 TC 45 28.7759 -119.337 2 10 36
1967248N13253 1967 89 EP MM LILY 1967-09-11 00:00:00 TS 29.1000 -119.200 45 hurdat_epa main 340 327 O________OO___ hurdat_epa EP111967 29.1000 -119.200 TS 45 0 29.1000 -119.200 TC 45 29.1000 -119.200 2 7 15
1967248N13253 1967 89 EP MM LILY 1967-09-11 03:00:00 TS 29.4245 -119.237 main 327 327 P________PP___ EP111967 29.4371 -119.222 TS 45 0 29.4371 -119.222 TC 45 29.3741 -119.298 2 6 335
1967248N13253 1967 89 EP MM LILY 1967-09-11 06:00:00 TS 29.6814 -119.518 45 hurdat_epa main 339 339 O________OP___ hurdat_epa EP111967 29.7000 -119.500 TS 45 0 29.7000 -119.500 TC 45 29.6069 -119.589 2 8 305
1967248N13253 1967 89 EP MM LILY 1967-09-11 09:00:00 TS 29.8628 -119.966 main 367 367 P________PP___ EP111967 29.8757 -119.955 TS 45 0 29.8757 -119.955 TC 45 29.8112 -120.011 2 9 291
1967248N13253 1967 89 EP MM LILY 1967-09-11 12:00:00 TS 30.0000 -120.500 45 hurdat_epa main 403 O________OO___ hurdat_epa EP111967 30.0000 -120.500 TS 45 0 30.0000 -120.500 TC 45 30.0000 -120.500 2 10 287

IBTrACS Databaseについて

本データベースは、米国NOAAが公開する1842年以降の世界の熱帯低気圧のベストトラックデータアーカイブInternational Best Track Archive for Climate Stewardship (IBTrACS)を、ウェブで閲覧しやすい形式に変換したものです。

最終更新日:2021-10-19